Indian Bend Wash near Shea Boulevard - ID # 4693

Current at Gage | Station Description | Rating Curve | Rating Table | Cross Section | Upstream | Downstream | DSS

Page Last Updated: 11 December 2018


View Larger Map

ID History | Site Data | Brief Rating | Water Year Peaks | Runoff History | Flood Frequency | USGS Data | Site Precip Data

Reload Page   |  ASWR   |   Streamflow Homepage   |   FCD Home Page


GAGE ID HISTORY

ID Elevation of
Instrument
in Gage Height
Elevation of
Instrument
in Datum
Period
       
4693 0.35 feet 1,344.61 feet NAVD 1988 06/09/1998 -- Current

Back to Top   |   Streamflow Homepage   |   FCD Home Page

SITE DATA

STATUS Active
LOCATION Near 52nd Street and Shea Boulevard
DRAINAGE AREA 25.8 mi2
STREAM TYPE Channelized Natural Stream
JURISDICTION Phoenix, Arizona
WATERSHED Lower Indian Bend
SECTION/TOWNSHIP/RANGE S29 T3N R4E
LATITUDE N 33° 34' 53.2"  |  +33.58143
LONGITUDE W 111° 58' 06.3"  |  -111.96841
ARIZONA STATE PLANE E 684236  | N 939083
USGS QUAD SHEET Paradise Valley 7.5-Minute
STREAMGAGE INSTALLATION DATE 06/09/1998 - WY 1998
PERIOD OF AVAILABLE DATA RECORD 06/09/1998 - Current
LENGTH OF AVAILABLE DATA RECORD (AS OF 10/01/2018) 20.31 Years | 7,419 Days
GAPS (> 2 DAYS) IN RECORD None
STAGE GAGE TYPE Pressure Transducer
STAGE GAGE ELEVATION 0.35 feet Gage Height
STAFF GAGES 0
CREST STAGE GAGES 0
ZERO GAGE HEIGHT ELEVATION 1,344.26 feet NAVD 1988
POINT OF ZERO FLOW 0.0 feet Gage Height
EXTREME FOR PERIOD OF RECORD 5,616 cfs | 4.68 feet | 08/02/2005

Back to Top   |   Streamflow Homepage   |   FCD Home Page

BRIEF RATING

Current Rating = #1 - Applied since 06/09/1998
Gage
Height
(feet)
Discharge
(cfs)
Gage
Height
(feet)
Discharge
(cfs)
0.0 0 4.0 4,000
1.0 110 5.0 6,500
2.0 700 6.0 9,200
3.0 2,000 7.0 12,000

Back to Top   |   Streamflow Homepage   |   FCD Home Page

WATER YEAR PEAKS

Water
Year
Peak
Gage Height
(feet)
Peak
Discharge
(cfs)
Date of
Peak
2020      
2019      
2018 2.41 1,134 08/23/2018
2017 2.02 718 08/24/2017
2016 2.76 1,612 08/05/2016
2015 2.08 770 09/14/2015
2014 3.82 3,591 09/08/2014
2013 2.20 896 07/21/2013
2012 1.48 310 08/23/2012
2011 1.72 472 08/01/2011
2010 1.95 654 01/21/2010
2009 1.52 339 02/09/2009
2008 2.55 1,313 08/26/2008
2007 2.03 723 07/30/2007
2006 4.12 4,277 08/24/2006
2005 4.68 5,616 08/02/2005
2004 3.38 2,656 10/10/2003
2003 3.10 2,164 02/14/2003
2002 2.97 1,957 07/14/2002
2001 2.50 1,247 10/10/2000
2000 1.65 419 08/29/2000
1999 2.50 1,247 09/19/1999
1998 1.52 339 07/06/1998

Back to Top   |   Streamflow Homepage   |   FCD Home Page

RUNOFF EVENT HISTORY

Date of
Peak
Time of
Peak
Runoff
Start
Runoff
End
Duration
(hours)
Peak
Stage
(feet GH)
Peak
Discharge
(CFS)
Water
Year
View a Plot of These Data
               
09/19/2018 16:40 09/19/2018 16:25 09/19/2018 19:06 2.7 0.57 25 2018
08/23/2018 20:47 08/23/2018 18:58 08/25/2018 02:15 31.3 2.41 1,134 2018
08/10/2018 23:46 08/10/2018 23:24 08/12/2018 18:00 42.6 1.89 602 2018
08/09/2018 03:23 08/08/2018 21:42 08/10/2018 06:00 32.3 0.89 65 2018
07/30/2018 20:54 07/30/2018 20:46 08/01/2018 09:37 36.9 1.47 308 2018
07/11/2018 22:32 07/11/2018 18:57 07/13/2018 17:32 46.6 1.49 319 2018
07/09/2018 17:21 07/09/2018 17:14 07/11/2018 12:00 42.8 1.47 308 2018
02/28/2018 00:12 02/27/2018 23:42 02/28/2018 11:21 11.7 0.94 83 2018
02/14/2018 17:52 02/14/2018 17:06 02/15/2018 04:43 11.6 0.85 53 2018
01/09/2018 22:32 01/09/2018 22:12 01/11/2018 04:44 30.5 1.17 167 2018
08/24/2017 00:36 08/23/2017 22:30 08/26/2017 12:00 61.5 2.02 718 2017
08/13/2017 08:40 08/13/2017 06:33 08/14/2017 06:00 23.5 0.77 38 2017
08/12/2017 07:37 08/12/2017 07:20 08/13/2017 00:00 16.7 0.92 75 2017
08/03/2017 19:06 08/03/2017 16:27 08/06/2017 00:00 55.6 1.74 483 2017
07/21/2017 19:19 07/21/2017 00:00 07/27/2017 06:00 150 0.99 105 2017
07/17/2017 01:14 07/16/2017 22:18 07/20/2017 18:00 91.7 1.72 468 2017
02/28/2017 08:05 02/27/2017 20:45 03/02/2017 06:00 57.3 1.32 231 2017
02/18/2017 18:00 02/18/2017 06:09 02/22/2017 00:00 89.9 1.12 149 2017
01/20/2017 23:30 01/20/2017 15:40 01/26/2017 04:35 133 1.32 231 2017
01/01/2017 23:30 01/01/2017 08:03 01/04/2017 00:00 64.0 1.37 255 2017
12/31/2016 08:40 12/31/2016 06:15 01/01/2017 07:30 25.3 1.27 208 2017
12/30/2016 22:05 12/30/2016 20:11 12/31/2016 01:10 5.0 0.95 87 2017
12/24/2016 18:00 12/24/2016 14:32 12/27/2016 11:20 68.8 1.27 208 2017
12/22/2016 05:55 12/21/2016 15:41 12/24/2016 12:00 68.3 1.50 325 2017
11/03/2016 19:29 11/03/2016 18:50 11/04/2016 11:19 16.5 0.95 87 2017
08/27/2016 15:28 08/27/2016 07:16 08/29/2016 12:00 52.7 1.09 138 2016
08/26/2016 07:51 08/26/2016 04:10 08/27/2016 02:21 22.2 0.84 50 2016
08/23/2016 08:29 08/23/2016 04:41 08/25/2016 06:00 49.3 1.54 348 2016
08/20/2016 19:48 08/20/2016 19:30 08/21/2016 12:00 16.5 1.09 138 2016
08/11/2016 13:37 08/10/2016 22:44 08/13/2016 12:00 61.3 1.42 281 2016
08/09/2016 13:31 08/09/2016 13:12 08/10/2016 06:00 16.8 0.97 96 2016
08/05/2016 10:54 08/05/2016 09:02 08/08/2016 00:00 63.0 2.76 1,612 2016
08/02/2016 18:37 08/02/2016 18:17 08/03/2016 07:02 12.8 1.34 240 2016
07/31/2016 02:56 07/31/2016 02:29 07/31/2016 14:25 11.9 0.89 65 2016
07/20/2016 03:14 07/20/2016 02:36 07/20/2016 12:00 9.4 0.72 34 2016
06/29/2016 23:40 06/29/2016 22:52 06/30/2016 03:47 4.9 1.37 255 2016
04/10/2016 16:28 04/10/2016 13:24 04/12/2016 06:19 40.9 1.38 257 2016
04/08/2016 06:01 04/08/2016 01:42 04/08/2016 21:38 19.9 1.10 142 2016
01/31/2016 23:19 01/31/2016 23:10 02/02/2016 00:19 25.2 1.30 222 2016
01/07/2016 12:57 01/07/2016 10:14 01/09/2016 00:20 38.1 1.52 339 2016
01/06/2016 06:18 01/06/2016 00:20 01/06/2016 18:17 18.0 1.62 402 2016
01/04/2016 22:59 01/04/2016 14:30 01/05/2016 08:37 18.1 1.30 222 2016
11/15/2015 23:48 11/15/2015 20:50 11/17/2015 00:20 27.5 0.85 53 2016
10/18/2015 19:14 10/18/2015 19:04 10/20/2015 06:21 35.3 1.68 436 2016
10/06/2015 18:21 10/06/2015 13:38 10/07/2015 18:21 28.7 1.12 151 2016
10/06/2015 01:40 10/06/2015 01:18 10/06/2015 06:50 5.5 1.00 110 2016
10/04/2015 11:46 10/04/2015 11:05 10/04/2015 16:35 5.5 0.78 38 2016
09/22/2015 19:23 09/22/2015 18:22 09/23/2015 00:22 6.0 0.68 31 2015
09/14/2015 19:54 09/13/2015 23:41 09/17/2015 00:21 72.1 2.08 770 2015
08/31/2015 21:18 08/31/2015 21:14 09/02/2015 12:22 39.1 1.70 454 2015
07/18/2015 23:01 07/18/2015 22:27 07/19/2015 06:23 7.9 1.10 142 2015
06/30/2015 00:24 06/29/2015 23:43 06/30/2015 04:28 4.8 0.80 40 2015
05/16/2015 00:44 05/15/2015 16:15 05/18/2015 00:24 56.2 1.70 454 2015
05/04/2015 08:10 05/03/2015 12:25 05/06/2015 00:25 60.0 1.25 200 2015
04/26/2015 06:25 04/26/2015 02:01 04/27/2015 21:38 43.6 1.08 133 2015
03/19/2015 09:05 03/19/2015 03:29 03/21/2015 10:57 55.5 1.50 325 2015
03/02/2015 13:23 03/02/2015 11:51 03/04/2015 20:58 57.1 1.18 169 2015
01/30/2015 18:26 01/29/2015 23:11 02/01/2015 15:25 64.2 1.18 169 2015
01/13/2015 16:28 01/13/2015 14:39 01/14/2015 06:27 15.8 0.95 87 2015
12/31/2014 12:27 12/31/2014 12:02 01/01/2015 00:50 12.8 0.95 87 2015
12/13/2014 06:27 12/13/2014 05:41 12/15/2014 18:27 60.8 1.20 179 2015
12/04/2014 10:47 12/04/2014 08:02 12/06/2014 14:05 54.1 1.70 454 2015
10/09/2014 08:06 10/08/2014 20:36 10/09/2014 18:25 21.8 0.60 27 2015
09/27/2014 15:01 09/27/2014 14:38 09/29/2014 18:51 52.2 2.00 700 2014
09/08/2014 04:58 09/08/2014 01:52 09/11/2014 04:25 74.6 3.82 3,591 2014
09/06/2014 20:24 09/06/2014 20:11 09/07/2014 00:41 4.5 1.22 189 2014
08/19/2014 13:45 08/19/2014 06:38 08/24/2014 00:12 114 3.35 2,609 2014
08/17/2014 21:58 08/17/2014 21:40 08/18/2014 09:58 12.3 1.00 110 2014
08/13/2014 01:38 08/12/2014 20:32 08/14/2014 23:25 50.9 1.38 257 2014
08/02/2014 19:59 08/02/2014 17:30 08/04/2014 08:18 38.8 1.95 654 2014
08/01/2014 00:47 08/01/2014 00:32 08/01/2014 06:42 6.2 0.95 87 2014
07/27/2014 01:54 07/26/2014 23:52 07/28/2014 21:59 46.1 2.02 723 2014
07/23/2014 22:38 07/23/2014 21:59 07/24/2014 09:59 12.0 1.18 169 2014
07/15/2014 16:35 07/15/2014 16:23 07/16/2014 02:34 10.2 1.18 169 2014
07/14/2014 20:02 07/14/2014 19:59 07/15/2014 03:59 8.0 1.20 179 2014
03/01/2014 22:44 03/01/2014 07:10 03/03/2014 22:02 62.9 1.85 568 2014
12/20/2013 10:45 12/19/2013 19:27 12/21/2013 04:44 33.3 0.92 77 2014
11/23/2013 01:48 11/23/2013 00:21 11/25/2013 07:12 54.9 1.35 245 2014
11/22/2013 06:46 11/21/2013 22:59 11/22/2013 16:43 17.7 1.42 283 2014
09/10/2013 16:42 09/10/2013 13:55 09/12/2013 22:42 56.8 1.38 257 2013
09/09/2013 15:02 09/09/2013 11:53 09/10/2013 10:41 22.8 1.50 325 2013
09/08/2013 16:41 09/08/2013 09:58 09/09/2013 08:59 23.0 1.10 142 2013
08/28/2013 22:41 08/28/2013 22:03 08/30/2013 10:41 36.6 1.22 189 2013
08/27/2013 10:41 08/27/2013 08:49 08/28/2013 04:41 19.9 0.82 46 2013
08/26/2013 19:48 08/26/2013 19:44 08/27/2013 04:41 9.0 1.15 160 2013
07/24/2013 19:39 07/24/2013 19:35 07/24/2013 21:58 2.4 0.55 24 2013
07/21/2013 11:17 07/21/2013 10:43 07/23/2013 05:10 42.5 2.20 896 2013
07/19/2013 23:02 07/19/2013 22:45 07/21/2013 04:16 29.5 1.30 222 2013
07/16/2013 10:40 07/16/2013 18:59 07/17/2013 15:24 20.4 0.68 31 2013
03/08/2013 08:48 03/08/2013 04:39 03/09/2013 18:08 37.5 1.10 142 2013
02/20/2013 12:08 02/20/2013 03:38 02/21/2013 12:08 32.5 1.05 125 2013
01/26/2013 12:03 01/26/2013 06:59 01/28/2013 15:03 56.1 1.48 310 2013
12/19/2012 08:55 12/19/2012 05:55 12/19/2012 20:55 15.0 0.62 28 2013
12/14/2012 04:24 12/13/2012 22:44 12/16/2012 17:54 67.2 1.75 490 2013
11/12/2012 18:49 11/12/2012 18:49 11/13/2012 05:46 11.0 0.45 18 2013
10/19/2012 11:44 10/19/2012 03:16 10/19/2012 14:46 11.5 0.60 27 2013
10/14/2012 08:23 10/14/2012 08:23 10/14/2012 10:38 2.3 0.45 18 2013
09/11/2012 04:14 09/11/2012 03:22 09/12/2012 07:59 28.6 1.28 210 2012
09/11/2012 00:05 09/10/2012 23:45 09/11/2012 01:39 1.9 0.78 38 2012
09/10/2012 04:54 09/10/2012 04:44 09/10/2012 05:56 1.2 0.78 38 2012
09/07/2012 10:36 09/07/2012 09:06 09/08/2012 12:49 28.0 1.22 189 2012
09/04/2012 18:10 09/04/2012 18:01 09/05/2012 01:58 8.0 0.92 77 2012
08/23/2012 04:41 08/23/2012 02:17 08/24/2012 06:17 28.0 1.48 310 2012
08/22/2012 03:07 08/21/2012 22:12 08/23/2012 00:52 26.7 1.05 125 2012
07/30/2012 00:46 07/30/2012 00:46 07/30/2012 07:58 7.2 0.45 18 2012
07/28/2012 20:48 07/28/2012 20:48 07/28/2012 21:11 0.4 0.45 18 2012
07/13/2012 11:03 07/13/2012 10:58 07/13/2012 13:58 3.0 0.60 27 2012
07/12/2012 00:45 07/11/2012 23:18 07/12/2012 07:58 8.8 0.68 31 2012
03/18/2012 15:43 03/18/2012 04:05 03/20/2012 03:43 47.6 1.12 151 2012
12/12/2011 21:57 12/12/2011 10:56 12/15/2011 03:41 64.8 0.95 87 2012
11/21/2011 09:40 11/21/2011 02:38 11/21/2011 19:39 17.0 0.82 46 2012
11/13/2011 03:53 11/13/2011 01:18 11/13/2011 13:49 12.5 0.78 38 2012
11/05/2011 03:40 11/04/2011 23:46 11/09/2011 03:40 99.9 1.35 245 2012
10/25/2011 19:17 10/25/2011 19:12 10/25/2011 21:04 1.9 0.58 25 2012
10/06/2011 09:36 10/06/2011 08:47 10/07/2011 07:07 22.3 0.90 68 2012
08/19/2011 07:26 08/19/2011 07:02 08/19/2011 17:58 10.9 0.65 30 2011
08/13/2011 05:57 08/13/2011 04:14 08/13/2011 12:46 8.5 0.85 53 2011
08/03/2011 23:54 08/03/2011 21:20 08/05/2011 03:45 30.4 1.45 297 2011
08/01/2011 00:37 07/31/2011 21:36 08/02/2011 11:30 37.9 1.72 472 2011
07/30/2011 20:26 07/30/2011 20:21 07/31/2011 04:51 8.5 0.88 60 2011
07/25/2011 02:52 07/24/2011 22:13 07/25/2011 16:11 18.0 1.00 110 2011
07/22/2011 20:52 07/22/2011 20:27 07/23/2011 00:10 3.7 0.65 30 2011
07/11/2011 04:15 07/11/2011 03:33 07/12/2011 15:46 36.2 1.38 257 2011
07/05/2011 01:20 07/04/2011 22:46 07/07/2011 14:52 64.1 1.45 297 2011
04/09/2011 08:52 04/09/2011 05:33 04/10/2011 11:26 29.9 0.98 98 2011
02/27/2011 02:13 02/27/2011 00:25 02/28/2011 08:13 31.8 1.00 110 2011
02/19/2011 17:26 02/19/2011 14:06 02/22/2011 02:42 60.6 1.22 189 2011
12/30/2010 05:09 12/29/2010 13:33 12/31/2010 17:07 51.6 1.42 283 2011
12/23/2010 02:30 12/22/2010 19:53 12/24/2010 15:40 43.8 1.22 189 2011
12/17/2010 07:26 12/17/2010 05:49 12/18/2010 17:46 36.0 0.68 31 2011
12/16/2010 16:29 12/16/2010 13:54 12/17/2010 01:42 11.8 0.92 77 2011
11/21/2010 15:18 11/21/2010 14:44 11/22/2010 02:10 11.4 1.08 133 2011
10/21/2010 14:10 10/21/2010 02:21 10/23/2010 01:52 47.5 1.12 151 2011
10/05/2010 20:34 10/05/2010 14:16 10/07/2010 14:52 48.6 1.15 160 2011
10/04/2010 20:52 10/04/2010 20:48 10/05/2010 08:10 11.4 0.60 27 2011
09/22/2010 08:01 09/22/2010 01:32 09/23/2010 21:10 43.6 1.10 142 2010
08/29/2010 02:09 08/28/2010 19:01 08/30/2010 06:35 35.6 1.22 189 2010
08/24/2010 17:46 08/24/2010 08:09 08/26/2010 08:09 48.0 1.32 233 2010
08/22/2010 01:17 08/22/2010 00:43 08/23/2010 14:09 37.4 1.02 117 2010
08/17/2010 23:16 08/17/2010 19:04 08/19/2010 20:09 49.1 1.10 142 2010
08/07/2010 22:11 08/07/2010 22:09 08/08/2010 02:09 4.0 0.72 35 2010
07/31/2010 06:20 07/31/2010 03:55 08/02/2010 03:39 47.7 1.58 370 2010
03/07/2010 15:44 03/07/2010 12:00 03/10/2010 04:47 64.8 1.38 257 2010
03/07/2010 00:20 03/06/2010 23:55 03/07/2010 07:58 8.1 0.98 98 2010
02/28/2010 02:41 02/27/2010 23:55 03/01/2010 16:43 40.8 1.60 386 2010
02/21/2010 07:40 02/20/2010 10:41 02/23/2010 19:29 80.8 1.50 325 2010
02/07/2010 09:55 02/07/2010 04:05 02/08/2010 02:15 22.2 1.10 142 2010
01/21/2010 22:05 01/21/2010 04:14 01/23/2010 19:29 63.3 1.95 654 2010
01/19/2010 21:14 01/19/2010 18:24 01/20/2010 19:29 25.1 1.60 386 2010
01/18/2010 12:38 01/18/2010 12:32 01/18/2010 13:45 1.2 0.55 24 2010
12/22/2009 15:34 12/22/2009 15:21 12/23/2009 07:03 15.7 0.57 25 2010
12/07/2009 21:33 12/07/2009 13:06 12/09/2009 03:33 38.5 1.17 167 2010
09/05/2009 21:15 09/05/2009 10:25 09/06/2009 11:15 24.8 0.85 53 2009
08/21/2009 21:13 08/21/2009 20:26 08/22/2009 18:53 22.5 1.25 200 2009
08/13/2009 09:13 08/13/2009 03:24 08/14/2009 05:49 26.4 1.27 210 2009
07/24/2009 01:02 07/24/2009 00:56 07/24/2009 04:21 3.4 1.23 189 2009
07/20/2009 21:12 07/20/2009 20:45 07/20/2009 23:47 3.0 1.02 117 2009
05/22/2009 03:14 05/22/2009 02:13 05/22/2009 11:36 9.4 0.90 68 2009
04/11/2009 04:19 04/11/2009 01:33 04/13/2009 15:47 62.2 1.17 169 2009
02/09/2009 23:51 02/08/2009 00:47 02/11/2009 09:13 80.4 1.52 339 2009
01/22/2009 05:34 01/22/2009 02:28 01/22/2009 15:49 13.4 0.82 46 2009
01/05/2009 00:53 01/04/2009 21:20 01/06/2009 18:50 45.5 1.35 245 2009
12/26/2008 05:13 12/25/2008 14:04 12/27/2008 09:11 43.1 1.20 179 2009
12/22/2008 19:21 12/22/2008 18:55 12/24/2008 15:11 44.3 0.80 40 2009
12/16/2008 13:36 12/16/2008 08:11 12/19/2008 08:17 72.1 1.30 222 2009
11/27/2008 09:13 11/26/2008 08:53 11/29/2008 03:40 66.8 1.40 270 2009
10/22/2008 09:11 10/22/2008 09:11 10/22/2008 15:11 6.0 0.52 22 2009
08/29/2008 01:38 08/28/2008 22:15 08/31/2008 05:26 55.2 1.85 568 2008
08/26/2008 01:42 08/25/2008 21:01 08/27/2008 13:12 40.2 2.55 1,313 2008
08/19/2008 22:44 08/19/2008 22:44 single report 0.0 0.45 18 2008
08/14/2008 21:28 08/14/2008 19:32 08/16/2008 07:31 36.0 1.58 370 2008
08/07/2008 23:57 08/07/2008 21:18 08/09/2008 14:30 41.2 1.48 310 2008
07/20/2008 02:41 07/20/2008 02:39 07/20/2008 20:30 17.9 0.95 87 2008
07/13/2008 16:10 07/13/2008 16:09 07/14/2008 16:43 24.6 0.90 68 2008
07/10/2008 22:24 07/10/2008 20:22 07/12/2008 18:28 46.1 1.88 589 2008
07/03/2008 22:10 07/03/2008 21:54 07/04/2008 20:29 22.6 1.15 160 2008
02/20/2008 22:30 02/20/2008 22:14 02/21/2008 03:13 5.0 0.68 31 2008
02/05/2008 00:14 02/04/2008 13:43 02/05/2008 14:28 24.8 0.60 27 2008
01/27/2008 23:38 01/27/2008 08:26 01/29/2008 06:29 46.1 1.42 283 2008
01/07/2008 14:27 01/07/2008 07:27 01/08/2008 09:00 25.6 1.12 151 2008
12/11/2007 17:27 12/11/2007 17:27 single report 0.0 0.45 18 2008
12/08/2007 03:29 12/07/2007 16:09 12/09/2007 05:15 37.1 1.33 233 2008
11/30/2007 19:46 11/30/2007 13:02 12/02/2007 23:31 58.5 2.20 896 2008
10/04/2007 18:43 10/04/2007 18:33 10/05/2007 06:54 12.4 0.85 53 2008
09/22/2007 16:11 09/22/2007 13:53 09/23/2007 04:18 14.4 0.73 35 2007
09/16/2007 14:56 09/16/2007 14:47 09/16/2007 18:08 3.4 0.98 98 2007
08/25/2007 05:08 08/25/2007 05:05 08/25/2007 14:25 9.3 0.85 53 2007
08/14/2007 14:26 08/14/2007 03:16 08/15/2007 08:26 29.2 1.25 200 2007
07/31/2007 19:35 07/31/2007 19:12 08/02/2007 02:28 31.3 1.98 677 2007
07/30/2007 17:18 07/30/2007 15:51 07/31/2007 18:02 26.2 2.03 723 2007
07/23/2007 19:21 07/23/2007 19:21 07/25/2007 14:26 43.1 1.10 142 2007
07/16/2007 22:38 07/16/2007 22:15 07/17/2007 08:15 10.0 0.75 37 2007
04/21/2007 05:26 04/21/2007 05:23 04/21/2007 16:10 10.8 0.68 31 2007
04/13/2007 02:04 04/13/2007 01:31 04/13/2007 16:11 14.7 0.57 25 2007
03/23/2007 00:03 03/22/2007 15:24 03/24/2007 06:51 39.5 1.55 354 2007
02/19/2007 22:12 02/19/2007 13:32 02/20/2007 19:57 30.4 1.05 125 2007
01/31/2007 20:01 01/31/2007 14:36 02/01/2007 11:18 20.7 0.85 53 2007
01/21/2007 16:51 01/21/2007 11:40 01/22/2007 10:12 22.5 0.77 38 2007
01/19/2007 19:30 01/19/2007 12:01 01/20/2007 22:12 34.2 0.70 33 2007
12/22/2006 16:11 12/22/2006 15:05 12/23/2006 10:11 19.1 0.70 33 2007
10/14/2006 11:44 10/14/2006 08:27 10/15/2006 00:22 15.9 1.12 151 2007
09/07/2006 02:47 09/07/2006 00:26 09/08/2006 21:44 45.3 2.28 977 2006
09/03/2006 00:13 09/03/2006 20:56 09/05/2006 04:12 31.3 1.80 528 2006
08/24/2006 11:09 08/24/2006 09:44 08/25/2006 19:00 33.3 4.12 4,277 2006
08/21/2006 20:26 08/21/2006 20:23 08/22/2006 02:02 5.6 0.75 37 2006
08/12/2006 02:56 08/12/2006 01:44 08/13/2006 04:12 26.5 0.98 98 2006
07/30/2006 05:45 07/30/2006 01:03 07/31/2006 04:12 27.2 0.82 46 2006
07/26/2006 01:22 07/25/2006 23:27 07/27/2006 17:31 42.1 2.67 1,486 2006
07/24/2006 23:55 07/24/2006 23:55 07/25/2006 01:18 1.4 0.60 27 2006
07/24/2006 01:31 07/24/2006 01:26 07/24/2006 04:13 2.8 0.62 28 2006
07/05/2006 00:09 07/05/2006 00:03 07/05/2006 04:13 4.2 0.65 30 2006
03/21/2006 17:22 03/21/2006 17:07 03/21/2006 18:56 1.8 0.70 33 2006
03/19/2006 20:06 03/19/2006 09:54 03/20/2006 03:01 17.1 0.82 46 2006
03/11/2006 10:33 03/11/2006 04:52 03/12/2006 22:13 41.4 1.35 245 2006
10/18/2005 15:08 10/18/2005 01:05 10/19/2005 12:15 35.2 0.98 98 2006
10/17/2005 19:19 10/17/2005 18:54 10/18/2005 00:15 5.6 0.70 33 2006
08/02/2005 22:37 08/02/2005 21:13 08/04/2005 07:42 34.5 4.68 5,616 2005
07/31/2005 20:55 07/31/2005 18:43 08/02/2005 00:17 29.6 1.50 325 2005
02/20/2005 06:03 02/20/2005 01:49 02/20/2005 18:42 16.9 1.10 142 2005
02/19/2005 03:24 02/19/2005 00:42 02/20/2005 00:25 23.7 1.58 370 2005
02/18/2005 01:57 02/17/2005 22:33 02/18/2005 17:05 18.5 1.48 310 2005
02/12/2005 20:24 02/12/2005 19:51 02/13/2005 09:16 13.4 1.27 210 2005
02/12/2005 01:08 02/11/2005 09:44 02/12/2005 17:04 31.3 1.20 179 2005
01/26/2005 17:03 01/26/2005 14:48 01/27/2005 11:03 20.3 2.08 770 2005
01/03/2005 17:05 01/03/2005 10:29 01/05/2005 19:36 57.1 1.27 210 2005
12/29/2004 13:36 12/28/2004 22:14 12/30/2004 23:05 48.9 1.58 370 2005
09/19/2004 18:42 09/19/2004 16:53 09/20/2004 23:27 30.6 1.00 110 2004
09/18/2004 21:07 09/18/2004 17:53 09/19/2004 11:37 17.7 1.00 110 2004
09/13/2004 05:37 09/12/2004 21:03 09/13/2004 13:04 16.0 0.77 38 2004
07/14/2004 03:04 07/13/2004 23:08 07/15/2004 15:06 40.0 1.58 370 2004
04/02/2004 08:59 04/02/2004 02:14 04/04/2004 05:39 51.4 2.08 770 2004
03/04/2004 19:49 03/04/2004 17:44 03/06/2004 20:26 50.7 1.58 370 2004
02/23/2004 07:01 02/23/2004 01:29 02/25/2004 04:04 50.6 1.62 402 2004
01/22/2004 13:45 01/22/2004 00:07 01/23/2004 19:45 43.6 0.98 98 2004
11/13/2003 00:30 11/12/2003 03:07 11/14/2003 19:20 64.2 1.58 370 2004
10/10/2003 09:59 10/10/2003 08:42 10/12/2003 01:48 41.1 3.38 2,656 2004
03/17/2003 15:45 03/17/2003 10:35 03/19/2003 15:45 53.2 1.48 310 2003
03/16/2003 22:50 03/16/2003 12:35 03/17/2003 09:45 21.2 1.27 210 2003
02/27/2003 12:25 02/27/2003 06:10 03/01/2003 09:45 51.6 1.05 125 2003
02/25/2003 20:26 02/25/2003 15:06 02/27/2003 03:45 36.7 1.60 386 2003
02/14/2003 20:42 02/14/2003 19:57 02/16/2003 13:57 42.0 1.12 151 2003
02/14/2003 00:57 02/13/2003 22:47 02/14/2003 16:47 18.0 3.10 2,164 2003
02/13/2003 18:27 02/13/2003 00:27 02/13/2003 20:12 19.8 2.25 950 2003
11/30/2002 01:43 11/29/2002 20:28 12/01/2002 16:03 43.6 1.08 133 2003
10/26/2002 14:47 10/26/2002 13:12 10/28/2002 05:22 40.2 1.45 297 2003
09/06/2002 23:49 09/06/2002 20:59 09/08/2002 12:39 39.7 1.58 370 2002
07/23/2002 22:00 07/23/2002 20:05 07/25/2002 15:00 42.9 2.28 977 2002
07/14/2002 22:52 07/14/2002 20:57 07/16/2002 11:31 38.6 2.97 1,957 2002
08/17/2001 02:29 08/17/2001 00:32 08/18/2001 01:40 25.1 1.40 270 2002
08/09/2001 04:43 08/09/2001 00:37 08/10/2001 06:04 29.5 1.20 179 2001
07/29/2001 23:00 07/29/2001 21:58 07/31/2001 02:23 28.4 1.17 169 2001
04/05/2001 23:02 04/05/2001 20:57 04/07/2001 01:05 28.1 1.85 568 2001
03/01/2001 10:49 03/07/2001 02:29 03/08/2001 03:55 25.4 1.65 419 2001
01/27/2001 07:44 01/27/2001 03:58 01/28/2001 13:45 33.8 1.55 354 2001
01/12/2001 09:29 01/12/2001 06:46 01/13/2001 07:01 24.3 1.25 200 2001
01/09/2001 02:16 01/08/2001 22:33 01/09/2001 15:26 16.9 1.15 160 2001
10/30/2000 19:19 10/30/2000 16:50 10/31/2000 07:00 14.2 1.05 125 2001
10/27/2000 18:58 10/27/2000 13:07 10/28/2000 18:24 29.3 1.25 200 2001
10/22/2000 08:17 10/21/2000 18:37 10/22/2000 23:09 28.5 1.25 200 2001
10/10/2000 07:12 10/10/2000 05:07 10/11/2000 07:40 26.6 2.50 1,247 2001
08/30/2000 22:46 08/30/2000 18:26 08/31/2000 16:39 22.2 1.10 142 2000
08/17/2000 23:24 08/17/2000 21:39 08/18/2000 20:11 22.5 1.65 419 2000
08/08/2000 01:39 08/07/2000 21:37 08/08/2000 18:32 20.9 1.42 283 2000
06/24/2000 01:04 06/23/2000 23:27 06/25/2000 01:39 26.2 1.62 402 2000
03/07/2000 06:18 03/07/2000 06:18 03/09/2000 03:47 45.5 1.02 117 2000
03/06/2000 02:23 03/05/2000 13:59 03/09/2000 03:47 32.5 1.65 419 2000
09/19/1999 20:46 09/19/1999 17:47 09/20/1999 09:24 15.6 2.50 1,247 1999
08/27/1999 19:47 08/27/1999 17:40 08/28/1999 17:03 23.4 2.17 870 1999
08/06/1999 00:41 08/05/1999 23:35 08/06/1999 20:26 20.9 1.45 297 1999
07/29/1999 13:24 07/29/1999 12:01 07/29/1999 22:54 10.9 1.73 472 1999
07/23/1999 21:26 07/23/1999 19:38 07/24/1999 15:05 19.5 1.45 297 1999
07/18/1999 21:32 07/18/1999 20:36 07/19/1999 14:47 18.2 1.70 454 1999
07/14/1999 17:57 07/13/1999 20:07 07/16/1999 00:35 52.5 2.20 896 1999
07/07/1999 20:38 07/07/1999 20:10 07/08/1999 14:11 18.0 1.17 169 1999
04/02/1999 05:19 04/02/1999 01:40 04/02/1999 20:38 19.0 1.35 245 1999
11/09/1998 00:54 11/09/1998 00:34 11/09/1998 13:21 12.8 1.08 125 1999
10/30/1998 14:33 10/30/1998 13:09 10/31/1998 05:47 16.6 1.23 189 1999
08/15/1998 23:05 08/15/1998 21:16 08/16/1998 11:04 13.8 1.20 179 1998
07/06/1998 22:57 07/06/1998 21:35 07/07/1998 06:39 9.1 1.52 339 1998

Back to Top   |   Streamflow Homepage   |   FCD Home Page

FLOOD FLOW FREQUENCY

Flood Flow Frequency
Based on HECWRC implementation of Bulletin 17B, n=30 1987-1995(USGS) & 1998-2018(FCDMC)
Magnitude and Probability of Instantaneous Peak Flow  |  Discharge, in cfs, for indicated Recurrence Interval
***NOTE: Flood Flow Frequency data are for information only and should not be considered valid for regulation***
2-year 5-year 10-year 20-year 50-year 100-year
1,160 2,300 3,320 4,500 6,360 8,030

Back to Top   |   Streamflow Homepage   |   FCD Home Page